^^
Saratoga-Weather Station Historical Data
Daily Summary for February 15, 2021 Units:  Both    English   Metric
Daily Weekly Monthly Yearly Custom
  High: Low: Average:
Temperature: 32 °F /  0 °C 28.2 °F /  -2.1 °C 30.4 °F /  -0.9 °C
Dew Point: 31.3 °F /  -0.4 °C 25.7 °F /  -3.5 °C 28.8 °F /  -1.8 °C
Humidity: 97% 89% 94%
Wind Speed: 0mph /  0km/h - 0mph /  0km/h
Wind Gust: 0mph /  0km/h - -
Wind- -
Pressure: 30.2 in /  1023.7 hPa 30 in /  1015.2 hPa -
Precipitation: 0 in /  0.0 mm    
Historical Graphs
 
 
Tabular Data for February 15, 2021
Time Temperature Dew Point Pressure Wind Wind Speed Wind Gust Humidity Rainfall Rate (Hourly) solar
00:03 31.8 °F /  -0.1 °C 31.1 °F /  -0.5 °C 30in /  1015.2hPa Calm     97% 0.01in /  0.2mm 0 W/m2
00:08 31.8 °F /  -0.1 °C 31.1 °F /  -0.5 °C 30in /  1015.2hPa Calm     97% 0.01in /  0.2mm 0 W/m2
00:13 31.8 °F /  -0.1 °C 31.1 °F /  -0.5 °C 30in /  1015.2hPa Calm     97% 0.01in /  0.2mm 0 W/m2
00:18 31.8 °F /  -0.1 °C 31.1 °F /  -0.5 °C 30in /  1015.2hPa Calm     97% 0.01in /  0.2mm 0 W/m2
00:23 31.8 °F /  -0.1 °C 31.1 °F /  -0.5 °C 30in /  1015.2hPa Calm     97% 0.01in /  0.2mm 0 W/m2
00:28 31.8 °F /  -0.1 °C 31.1 °F /  -0.5 °C 30in /  1015.2hPa Calm     97% 0.01in /  0.2mm 0 W/m2
00:33 31.8 °F /  -0.1 °C 31.1 °F /  -0.5 °C 30in /  1015.2hPa Calm     97% 0.01in /  0.2mm 0 W/m2
00:38 31.8 °F /  -0.1 °C 31.1 °F /  -0.5 °C 30in /  1015.2hPa Calm     97% 0.01in /  0.2mm 0 W/m2
00:43 31.8 °F /  -0.1 °C 31.1 °F /  -0.5 °C 30in /  1015.2hPa Calm     97% 0.01in /  0.2mm 0 W/m2
00:48 31.8 °F /  -0.1 °C 31.1 °F /  -0.5 °C 30in /  1015.2hPa Calm     97% 0.01in /  0.2mm 0 W/m2
00:53 32 °F /  0 °C 31.3 °F /  -0.4 °C 30in /  1015.6hPa Calm     97% 0in /  0.0mm 0 W/m2
00:58 31.8 °F /  -0.1 °C 31.1 °F /  -0.5 °C 30in /  1015.6hPa Calm     97% 0in /  0.0mm 0 W/m2
01:03 31.8 °F /  -0.1 °C 31.1 °F /  -0.5 °C 30in /  1015.6hPa Calm     97% 0in /  0.0mm 0 W/m2
01:08 31.8 °F /  -0.1 °C 31.1 °F /  -0.5 °C 30in /  1015.6hPa Calm     97% 0in /  0.0mm 0 W/m2
01:13 31.8 °F /  -0.1 °C 31.1 °F /  -0.5 °C 30in /  1015.6hPa Calm     97% 0in /  0.0mm 0 W/m2
01:18 32 °F /  0 °C 31.3 °F /  -0.4 °C 30in /  1015.6hPa Calm     97% 0in /  0.0mm 0 W/m2
01:23 31.8 °F /  -0.1 °C 31.1 °F /  -0.5 °C 30in /  1015.6hPa Calm     97% 0in /  0.0mm 0 W/m2
01:28 32 °F /  0 °C 31.3 °F /  -0.4 °C 30in /  1015.6hPa Calm     97% 0in /  0.0mm 0 W/m2
01:34 32 °F /  0 °C 31.3 °F /  -0.4 °C 30in /  1015.9hPa Calm     97% 0in /  0.0mm 0 W/m2
01:39 31.8 °F /  -0.1 °C 31.1 °F /  -0.5 °C 30in /  1015.9hPa Calm     97% 0in /  0.0mm 0 W/m2
01:44 31.8 °F /  -0.1 °C 31.1 °F /  -0.5 °C 30in /  1015.9hPa Calm     97% 0in /  0.0mm 0 W/m2
01:49 31.8 °F /  -0.1 °C 31.1 °F /  -0.5 °C 30in /  1015.9hPa Calm     97% 0in /  0.0mm 0 W/m2
01:54 31.8 °F /  -0.1 °C 31.1 °F /  -0.5 °C 30in /  1015.9hPa Calm     97% 0in /  0.0mm 0 W/m2
01:59 31.8 °F /  -0.1 °C 31.1 °F /  -0.5 °C 30in /  1015.9hPa Calm     97% 0in /  0.0mm 0 W/m2
02:04 31.8 °F /  -0.1 °C 31.1 °F /  -0.5 °C 30in /  1015.9hPa Calm     97% 0in /  0.0mm 0 W/m2
02:09 31.8 °F /  -0.1 °C 31.1 °F /  -0.5 °C 30in /  1016.3hPa Calm     97% 0in /  0.0mm 0 W/m2
02:14 31.6 °F /  -0.2 °C 30.9 °F /  -0.6 °C 30in /  1016.3hPa Calm     97% 0in /  0.0mm 0 W/m2
02:19 31.6 °F /  -0.2 °C 30.9 °F /  -0.6 °C 30in /  1016.3hPa Calm     97% 0in /  0.0mm 0 W/m2
02:24 31.6 °F /  -0.2 °C 30.9 °F /  -0.6 °C 30in /  1016.3hPa Calm     97% 0in /  0.0mm 0 W/m2
02:29 31.6 °F /  -0.2 °C 30.9 °F /  -0.6 °C 30in /  1016.3hPa Calm     97% 0in /  0.0mm 0 W/m2
02:34 31.6 °F /  -0.2 °C 30.9 °F /  -0.6 °C 30in /  1016.3hPa Calm     97% 0in /  0.0mm 0 W/m2
02:39 31.6 °F /  -0.2 °C 30.9 °F /  -0.6 °C 30in /  1016.6hPa Calm     97% 0in /  0.0mm 0 W/m2
02:44 31.5 °F /  -0.3 °C 30.7 °F /  -0.7 °C 30in /  1016.6hPa Calm     97% 0in /  0.0mm 0 W/m2
02:49 31.5 °F /  -0.3 °C 30.7 °F /  -0.7 °C 30in /  1016.6hPa Calm     97% 0in /  0.0mm 0 W/m2
02:54 31.5 °F /  -0.3 °C 30.7 °F /  -0.7 °C 30in /  1016.9hPa Calm     97% 0in /  0.0mm 0 W/m2
02:59 31.5 °F /  -0.3 °C 30.7 °F /  -0.7 °C 30in /  1016.9hPa Calm     97% 0in /  0.0mm 0 W/m2
03:04 31.5 °F /  -0.3 °C 30.7 °F /  -0.7 °C 30in /  1016.9hPa Calm     97% 0in /  0.0mm 0 W/m2
03:09 31.5 °F /  -0.3 °C 30.7 °F /  -0.7 °C 30in /  1016.9hPa Calm     97% 0in /  0.0mm 0 W/m2
03:14 31.3 °F /  -0.4 °C 30.6 °F /  -0.8 °C 30in /  1016.9hPa Calm     97% 0in /  0.0mm 0 W/m2
03:19 31.3 °F /  -0.4 °C 30.6 °F /  -0.8 °C 30in /  1017.3hPa Calm     97% 0in /  0.0mm 0 W/m2
03:24 31.3 °F /  -0.4 °C 30.6 °F /  -0.8 °C 30in /  1017.3hPa Calm     97% 0in /  0.0mm 0 W/m2
03:29 31.3 °F /  -0.4 °C 30.6 °F /  -0.8 °C 30in /  1017.3hPa Calm     97% 0in /  0.0mm 0 W/m2
03:34 31.3 °F /  -0.4 °C 30.6 °F /  -0.8 °C 30in /  1017.3hPa Calm     97% 0in /  0.0mm 0 W/m2
03:39 31.3 °F /  -0.4 °C 30.2 °F /  -1 °C 30.1in /  1017.6hPa Calm     96% 0in /  0.0mm 0 W/m2
03:44 31.3 °F /  -0.4 °C 30.2 °F /  -1 °C 30.1in /  1017.6hPa Calm     96% 0in /  0.0mm 0 W/m2
03:49 31.3 °F /  -0.4 °C 30.2 °F /  -1 °C 30.1in /  1017.6hPa Calm     96% 0in /  0.0mm 0 W/m2
03:54 31.5 °F /  -0.3 °C 30.4 °F /  -0.9 °C 30.1in /  1018.0hPa Calm     96% 0in /  0.0mm 0 W/m2
03:59 31.5 °F /  -0.3 °C 30.4 °F /  -0.9 °C 30.1in /  1018.0hPa Calm     96% 0in /  0.0mm 0 W/m2
04:04 31.6 °F /  -0.2 °C 30.6 °F /  -0.8 °C 30.1in /  1018.0hPa Calm     96% 0in /  0.0mm 0 W/m2
04:09 31.6 °F /  -0.2 °C 30.4 °F /  -0.9 °C 30.1in /  1018.0hPa Calm     95% 0in /  0.0mm 0 W/m2
04:14 31.6 °F /  -0.2 °C 30.4 °F /  -0.9 °C 30.1in /  1018.0hPa Calm     95% 0in /  0.0mm 0 W/m2
04:19 31.6 °F /  -0.2 °C 30.4 °F /  -0.9 °C 30.1in /  1018.0hPa Calm     95% 0in /  0.0mm 0 W/m2
04:24 31.6 °F /  -0.2 °C 30.2 °F /  -1 °C 30.1in /  1018.0hPa Calm     94% 0in /  0.0mm 0 W/m2
04:29 31.8 °F /  -0.1 °C 30.4 °F /  -0.9 °C 30.1in /  1018.3hPa Calm     94% 0in /  0.0mm 0 W/m2
04:34 31.6 °F /  -0.2 °C 29.8 °F /  -1.2 °C 30.1in /  1018.3hPa Calm     93% 0in /  0.0mm 0 W/m2
04:39 31.6 °F /  -0.2 °C 29.8 °F /  -1.2 °C 30.1in /  1018.3hPa Calm     93% 0in /  0.0mm 0 W/m2
04:49 31.5 °F /  -0.3 °C 29.7 °F /  -1.3 °C 30.1in /  1018.6hPa Calm     93% 0in /  0.0mm 0 W/m2
04:54 31.3 °F /  -0.4 °C 29.5 °F /  -1.4 °C 30.1in /  1018.6hPa Calm     93% 0in /  0.0mm 0 W/m2
04:59 31.3 °F /  -0.4 °C 29.3 °F /  -1.5 °C 30.1in /  1018.6hPa Calm     92% 0in /  0.0mm 0 W/m2
05:04 31.1 °F /  -0.5 °C 29.1 °F /  -1.6 °C 30.1in /  1018.6hPa Calm     92% 0in /  0.0mm 0 W/m2
05:09 30.9 °F /  -0.6 °C 28.6 °F /  -1.9 °C 30.1in /  1018.6hPa Calm     91% 0in /  0.0mm 0 W/m2
05:14 30.7 °F /  -0.7 °C 28.4 °F /  -2 °C 30.1in /  1018.6hPa Calm     91% 0in /  0.0mm 0 W/m2
05:19 30.7 °F /  -0.7 °C 28.4 °F /  -2 °C 30.1in /  1018.6hPa Calm     91% 0in /  0.0mm 0 W/m2
05:24 30.6 °F /  -0.8 °C 28.2 °F /  -2.1 °C 30.1in /  1019.0hPa Calm     91% 0in /  0.0mm 0 W/m2
05:29 30.6 °F /  -0.8 °C 28.2 °F /  -2.1 °C 30.1in /  1019.0hPa Calm     91% 0in /  0.0mm 0 W/m2
05:34 30.4 °F /  -0.9 °C 28 °F /  -2.2 °C 30.1in /  1019.0hPa Calm     91% 0in /  0.0mm 0 W/m2
05:39 30.2 °F /  -1 °C 27.9 °F /  -2.3 °C 30.1in /  1019.0hPa Calm     91% 0in /  0.0mm 0 W/m2
05:44 30.2 °F /  -1 °C 27.9 °F /  -2.3 °C 30.1in /  1019.0hPa Calm     91% 0in /  0.0mm 0 W/m2
05:49 30 °F /  -1.1 °C 27.7 °F /  -2.4 °C 30.1in /  1019.3hPa Calm     91% 0in /  0.0mm 0 W/m2
05:54 30 °F /  -1.1 °C 27.7 °F /  -2.4 °C 30.1in /  1019.3hPa Calm     91% 0in /  0.0mm 0 W/m2
05:59 29.8 °F /  -1.2 °C 27.5 °F /  -2.5 °C 30.1in /  1019.3hPa Calm     91% 0in /  0.0mm 0 W/m2
06:04 29.8 °F /  -1.2 °C 27.5 °F /  -2.5 °C 30.1in /  1019.3hPa Calm     91% 0in /  0.0mm 0 W/m2
06:09 29.7 °F /  -1.3 °C 27.3 °F /  -2.6 °C 30.1in /  1019.6hPa Calm     91% 0in /  0.0mm 0 W/m2
06:14 29.5 °F /  -1.4 °C 27.1 °F /  -2.7 °C 30.1in /  1019.6hPa Calm     91% 0in /  0.0mm 0 W/m2
06:19 29.3 °F /  -1.5 °C 27 °F /  -2.8 °C 30.1in /  1019.6hPa Calm     91% 0in /  0.0mm 0 W/m2
06:24 29.1 °F /  -1.6 °C 26.8 °F /  -2.9 °C 30.1in /  1019.6hPa Calm     91% 0in /  0.0mm 0 W/m2
06:29 29.1 °F /  -1.6 °C 26.8 °F /  -2.9 °C 30.1in /  1020.0hPa Calm     91% 0in /  0.0mm 0 W/m2
06:34 28.9 °F /  -1.7 °C 26.6 °F /  -3 °C 30.1in /  1020.0hPa Calm     91% 0in /  0.0mm 0 W/m2
06:39 28.9 °F /  -1.7 °C 26.6 °F /  -3 °C 30.1in /  1020.0hPa Calm     91% 0in /  0.0mm 0 W/m2
06:44 28.9 °F /  -1.7 °C 27 °F /  -2.8 °C 30.1in /  1020.3hPa Calm     92% 0in /  0.0mm 0 W/m2
06:49 28.8 °F /  -1.8 °C 26.8 °F /  -2.9 °C 30.1in /  1020.3hPa Calm     92% 0in /  0.0mm 0 W/m2
06:54 28.8 °F /  -1.8 °C 26.8 °F /  -2.9 °C 30.1in /  1020.3hPa Calm     92% 0in /  0.0mm 0 W/m2
06:59 28.8 °F /  -1.8 °C 26.4 °F /  -3.1 °C 30.1in /  1020.3hPa Calm     91% 0in /  0.0mm 0 W/m2
07:04 28.8 °F /  -1.8 °C 26.4 °F /  -3.1 °C 30.1in /  1020.3hPa Calm     91% 0in /  0.0mm 0 W/m2
07:09 28.6 °F /  -1.9 °C 26.2 °F /  -3.2 °C 30.1in /  1020.7hPa Calm     91% 0in /  0.0mm 0 W/m2
07:14 28.6 °F /  -1.9 °C 26.2 °F /  -3.2 °C 30.1in /  1020.7hPa Calm     91% 0in /  0.0mm 0 W/m2
07:19 28.6 °F /  -1.9 °C 26.2 °F /  -3.2 °C 30.1in /  1020.7hPa Calm     91% 0in /  0.0mm 0 W/m2
07:29 28.6 °F /  -1.9 °C 26.2 °F /  -3.2 °C 30.1in /  1020.7hPa Calm     91% 0in /  0.0mm 0 W/m2
07:34 28.6 °F /  -1.9 °C 26.2 °F /  -3.2 °C 30.2in /  1021.0hPa Calm     91% 0in /  0.0mm 0 W/m2
07:39 28.6 °F /  -1.9 °C 26.2 °F /  -3.2 °C 30.2in /  1021.0hPa Calm     91% 0in /  0.0mm 0 W/m2
07:44 28.6 °F /  -1.9 °C 26.2 °F /  -3.2 °C 30.2in /  1021.0hPa Calm     91% 0in /  0.0mm 0 W/m2
07:49 28.6 °F /  -1.9 °C 26.2 °F /  -3.2 °C 30.2in /  1021.3hPa Calm     91% 0in /  0.0mm 0 W/m2
07:54 28.6 °F /  -1.9 °C 26.2 °F /  -3.2 °C 30.2in /  1021.3hPa Calm     91% 0in /  0.0mm 0 W/m2
07:59 28.6 °F /  -1.9 °C 26.2 °F /  -3.2 °C 30.2in /  1021.3hPa Calm     91% 0in /  0.0mm 0 W/m2
08:04 28.6 °F /  -1.9 °C 26.2 °F /  -3.2 °C 30.2in /  1021.3hPa Calm     91% 0in /  0.0mm 0 W/m2
08:14 28.6 °F /  -1.9 °C 26.2 °F /  -3.2 °C 30.2in /  1021.7hPa Calm     91% 0in /  0.0mm 0 W/m2
08:19 28.4 °F /  -2 °C 26.1 °F /  -3.3 °C 30.2in /  1021.7hPa Calm     91% 0in /  0.0mm 0 W/m2
08:24 28.4 °F /  -2 °C 26.1 °F /  -3.3 °C 30.2in /  1022.0hPa Calm     91% 0in /  0.0mm 0 W/m2
08:29 28.4 °F /  -2 °C 25.9 °F /  -3.4 °C 30.2in /  1022.0hPa Calm     90% 0in /  0.0mm 0 W/m2
08:34 28.4 °F /  -2 °C 25.9 °F /  -3.4 °C 30.2in /  1022.0hPa Calm     90% 0in /  0.0mm 0 W/m2
08:39 28.2 °F /  -2.1 °C 25.7 °F /  -3.5 °C 30.2in /  1022.4hPa Calm     90% 0in /  0.0mm 0 W/m2
08:44 28.2 °F /  -2.1 °C 25.7 °F /  -3.5 °C 30.2in /  1022.4hPa Calm     90% 0in /  0.0mm 0 W/m2
08:49 28.2 °F /  -2.1 °C 25.7 °F /  -3.5 °C 30.2in /  1022.4hPa Calm     90% 0in /  0.0mm 0 W/m2
08:54 28.2 °F /  -2.1 °C 25.7 °F /  -3.5 °C 30.2in /  1022.4hPa Calm     90% 0in /  0.0mm 0 W/m2
09:00 28.2 °F /  -2.1 °C 25.7 °F /  -3.5 °C 30.2in /  1022.7hPa Calm     90% 0in /  0.0mm 5 W/m2
09:05 28.4 °F /  -2 °C 25.9 °F /  -3.4 °C 30.2in /  1022.7hPa Calm     90% 0in /  0.0mm 5 W/m2
09:10 28.6 °F /  -1.9 °C 26.1 °F /  -3.3 °C 30.2in /  1022.7hPa Calm     90% 0in /  0.0mm 7 W/m2
09:15 28.6 °F /  -1.9 °C 26.1 °F /  -3.3 °C 30.2in /  1022.7hPa Calm     90% 0in /  0.0mm 7 W/m2
09:20 28.6 °F /  -1.9 °C 26.1 °F /  -3.3 °C 30.2in /  1023.0hPa Calm     90% 0in /  0.0mm 9 W/m2
09:25 28.6 °F /  -1.9 °C 26.1 °F /  -3.3 °C 30.2in /  1023.0hPa Calm     90% 0in /  0.0mm 9 W/m2
09:30 28.6 °F /  -1.9 °C 26.1 °F /  -3.3 °C 30.2in /  1023.0hPa Calm     90% 0in /  0.0mm 11 W/m2
09:35 28.8 °F /  -1.8 °C 26.2 °F /  -3.2 °C 30.2in /  1023.4hPa Calm     90% 0in /  0.0mm 11 W/m2
09:40 28.8 °F /  -1.8 °C 26.2 °F /  -3.2 °C 30.2in /  1023.4hPa Calm     90% 0in /  0.0mm 11 W/m2
09:50 28.9 °F /  -1.7 °C 26.4 °F /  -3.1 °C 30.2in /  1023.4hPa Calm     90% 0in /  0.0mm 11 W/m2
09:55 28.9 °F /  -1.7 °C 26.1 °F /  -3.3 °C 30.2in /  1023.4hPa Calm     89% 0in /  0.0mm 11 W/m2
10:00 28.9 °F /  -1.7 °C 26.1 °F /  -3.3 °C 30.2in /  1023.7hPa Calm     89% 0in /  0.0mm 11 W/m2
Juneau County Weather
Compliments of Weather Underground - 2 mb